Cedar Rapids, IA (52401)

6:05 AM CDT on September 02, 2015 (GMT -0500)
SW Cedar Rapids | | Change Station
CLOSE
Current Station
Personal Weather Station
Location: Cedar Rapids, IA
Elevation: 745 ft
Nearby Weather Stations

Elev 745 ft 41.97 °N, 91.68 °W | Updated 17 seconds ago

Partly Cloudy
Partly Cloudy
72.4 °F
Feels Like 73 °F
N
0.4
Wind Variable Wind from SW
Gusts 0.9 mph

Today
High -- | Low -- °F
--% Chance of Precip.
Yesterday
High -- | Low -- °F
Precip. -- in
6:33 AM 7:38 PM
Waning Gibbous, 81% visible
Pressure 30.00 in
Visibility 5.0 miles
Clouds Clear
Heat Index 73 °F
Dew Point 65 °F
Humidity 77%
Rainfall 0.00 in
Snow Depth Not available.
UV 0 out of 12
Pollen 10.70 out of 12
Air Quality Not available.
Flu Activity Not available.
METAR KCID 021052Z 21003KT 5SM BR CLR 21/21 A3002 RMK AO2 SLP158 T02060206
Pressure 30.00 in
Visibility 5.0 miles
Clouds Clear
Heat Index 73 °F
Dew Point 65 °F
Humidity 77%
Rainfall 0.00 in
Snow Depth Not available.
UV 0 out of 12
Pollen 10.70 out of 12
Air Quality Not available.
Flu Activity Not available.
METAR KCID 021052Z 21003KT 5SM BR CLR 21/21 A3002 RMK AO2 SLP158 T02060206

10-Day Weather Forecast

×

Almanac

Astronomy

Sep. 02, 2015 Rise Set
Actual Time
Civil Twilight
Nautical Twilight
Astronomical Twilight
Moon
Length of Visible Light
Length of Day
Tomorrow will be .
, % of the Moon is Illuminated

Today's Extremes

State Highs State Lows

Community

WunderPhotos

Upload Photos

1,851,731 photos uploaded!

WunderBlogs® & News

Nearby

Air Quality

  Air Quality AQ Index Pollutant
Not available.

Snow Depth

Station Depth Elevation

Earthquake Activity

City Distance Mag. Time & Date
Minimum magnitude displayed is 2.5.

Coastal Water Temperatures

Place Temperature

Stations

Nearby Weather Stations

Station Location Temp. Windchill Dew Point Humidity Wind Precip. Elev Updated Type